sensor_id;sensor_type;location;lat;lon;timestamp;P1;durP1;ratioP1;P2;durP2;ratioP2
20476;SDS011;10397;50.948;11.092;2023-07-31T00:02:23;3.17;;;0.62;;
20476;SDS011;10397;50.948;11.092;2023-07-31T00:04:55;3.25;;;0.70;;
20476;SDS011;10397;50.948;11.092;2023-07-31T00:07:25;2.50;;;0.90;;
20476;SDS011;10397;50.948;11.092;2023-07-31T00:09:56;4.12;;;0.70;;
20476;SDS011;10397;50.948;11.092;2023-07-31T00:12:27;3.70;;;1.00;;
20476;SDS011;10397;50.948;11.092;2023-07-31T00:14:59;4.28;;;0.82;;
20476;SDS011;10397;50.948;11.092;2023-07-31T00:17:30;4.42;;;0.90;;
20476;SDS011;10397;50.948;11.092;2023-07-31T00:20:01;6.15;;;0.93;;
20476;SDS011;10397;50.948;11.092;2023-07-31T00:22:32;4.87;;;1.05;;
20476;SDS011;10397;50.948;11.092;2023-07-31T00:25:03;6.20;;;1.05;;
20476;SDS011;10397;50.948;11.092;2023-07-31T00:27:34;7.10;;;1.02;;
20476;SDS011;10397;50.948;11.092;2023-07-31T00:30:05;4.22;;;1.02;;
20476;SDS011;10397;50.948;11.092;2023-07-31T00:32:36;2.07;;;0.80;;
20476;SDS011;10397;50.948;11.092;2023-07-31T00:35:07;1.67;;;0.62;;
20476;SDS011;10397;50.948;11.092;2023-07-31T00:37:39;5.58;;;1.20;;
20476;SDS011;10397;50.948;11.092;2023-07-31T00:40:10;2.12;;;0.62;;
20476;SDS011;10397;50.948;11.092;2023-07-31T00:42:40;5.33;;;0.80;;
20476;SDS011;10397;50.948;11.092;2023-07-31T00:45:12;4.42;;;1.02;;
20476;SDS011;10397;50.948;11.092;2023-07-31T00:47:42;2.30;;;0.90;;
20476;SDS011;10397;50.948;11.092;2023-07-31T00:50:13;3.75;;;0.88;;
20476;SDS011;10397;50.948;11.092;2023-07-31T00:52:44;2.77;;;0.88;;
20476;SDS011;10397;50.948;11.092;2023-07-31T00:55:16;2.25;;;0.90;;
20476;SDS011;10397;50.948;11.092;2023-07-31T00:57:47;2.42;;;0.90;;
20476;SDS011;10397;50.948;11.092;2023-07-31T01:00:18;4.17;;;1.00;;
20476;SDS011;10397;50.948;11.092;2023-07-31T01:02:49;3.20;;;0.88;;
20476;SDS011;10397;50.948;11.092;2023-07-31T01:05:21;2.60;;;1.07;;
20476;SDS011;10397;50.948;11.092;2023-07-31T01:08:04;4.83;;;1.02;;
20476;SDS011;10397;50.948;11.092;2023-07-31T01:10:30;2.73;;;0.60;;
20476;SDS011;10397;50.948;11.092;2023-07-31T01:12:59;4.75;;;1.00;;
20476;SDS011;10397;50.948;11.092;2023-07-31T01:15:31;3.60;;;0.80;;
20476;SDS011;10397;50.948;11.092;2023-07-31T01:18:02;2.62;;;0.98;;
20476;SDS011;10397;50.948;11.092;2023-07-31T01:20:33;7.67;;;1.17;;
20476;SDS011;10397;50.948;11.092;2023-07-31T01:23:23;3.70;;;0.85;;
20476;SDS011;10397;50.948;11.092;2023-07-31T01:28:35;2.83;;;0.80;;
20476;SDS011;10397;50.948;11.092;2023-07-31T01:31:25;3.67;;;1.10;;
20476;SDS011;10397;50.948;11.092;2023-07-31T01:33:53;2.17;;;0.70;;
20476;SDS011;10397;50.948;11.092;2023-07-31T01:36:23;3.50;;;0.85;;
20476;SDS011;10397;50.948;11.092;2023-07-31T01:38:58;2.45;;;1.07;;
20476;SDS011;10397;50.948;11.092;2023-07-31T01:41:28;1.97;;;0.73;;
20476;SDS011;10397;50.948;11.092;2023-07-31T01:43:59;2.42;;;1.12;;
20476;SDS011;10397;50.948;11.092;2023-07-31T01:46:30;3.30;;;0.98;;
20476;SDS011;10397;50.948;11.092;2023-07-31T01:49:01;3.83;;;0.98;;
20476;SDS011;10397;50.948;11.092;2023-07-31T01:51:32;3.33;;;0.80;;
20476;SDS011;10397;50.948;11.092;2023-07-31T01:54:03;2.83;;;0.80;;
20476;SDS011;10397;50.948;11.092;2023-07-31T01:56:34;5.12;;;1.40;;
20476;SDS011;10397;50.948;11.092;2023-07-31T01:59:05;4.42;;;0.93;;
20476;SDS011;10397;50.948;11.092;2023-07-31T02:01:36;3.23;;;1.07;;
20476;SDS011;10397;50.948;11.092;2023-07-31T02:04:06;3.85;;;0.95;;
20476;SDS011;10397;50.948;11.092;2023-07-31T02:06:38;3.15;;;1.15;;
20476;SDS011;10397;50.948;11.092;2023-07-31T02:09:08;5.20;;;1.00;;
20476;SDS011;10397;50.948;11.092;2023-07-31T02:11:39;3.62;;;1.20;;
20476;SDS011;10397;50.948;11.092;2023-07-31T02:14:10;3.67;;;1.32;;
20476;SDS011;10397;50.948;11.092;2023-07-31T02:16:42;3.12;;;0.80;;
20476;SDS011;10397;50.948;11.092;2023-07-31T02:19:12;3.15;;;0.90;;
20476;SDS011;10397;50.948;11.092;2023-07-31T02:21:43;5.80;;;1.35;;
20476;SDS011;10397;50.948;11.092;2023-07-31T02:24:14;5.63;;;1.10;;
20476;SDS011;10397;50.948;11.092;2023-07-31T02:26:45;2.50;;;0.98;;
20476;SDS011;10397;50.948;11.092;2023-07-31T02:29:16;4.78;;;1.15;;
20476;SDS011;10397;50.948;11.092;2023-07-31T02:31:48;2.17;;;0.93;;
20476;SDS011;10397;50.948;11.092;2023-07-31T02:34:19;3.87;;;1.07;;
20476;SDS011;10397;50.948;11.092;2023-07-31T02:36:50;3.77;;;0.98;;
20476;SDS011;10397;50.948;11.092;2023-07-31T02:39:22;3.95;;;1.27;;
20476;SDS011;10397;50.948;11.092;2023-07-31T02:41:53;3.25;;;0.80;;
20476;SDS011;10397;50.948;11.092;2023-07-31T02:44:24;4.62;;;1.15;;
20476;SDS011;10397;50.948;11.092;2023-07-31T02:46:55;2.35;;;0.72;;
20476;SDS011;10397;50.948;11.092;2023-07-31T02:49:26;2.15;;;1.07;;
20476;SDS011;10397;50.948;11.092;2023-07-31T02:51:57;7.28;;;1.85;;
20476;SDS011;10397;50.948;11.092;2023-07-31T02:54:29;2.92;;;1.12;;
20476;SDS011;10397;50.948;11.092;2023-07-31T02:57:01;3.30;;;1.10;;
20476;SDS011;10397;50.948;11.092;2023-07-31T02:59:32;2.80;;;1.00;;
20476;SDS011;10397;50.948;11.092;2023-07-31T03:02:03;3.65;;;1.10;;
20476;SDS011;10397;50.948;11.092;2023-07-31T03:04:33;3.10;;;1.13;;
20476;SDS011;10397;50.948;11.092;2023-07-31T03:07:05;2.37;;;0.90;;
20476;SDS011;10397;50.948;11.092;2023-07-31T03:09:36;4.97;;;1.10;;
20476;SDS011;10397;50.948;11.092;2023-07-31T03:12:07;1.98;;;0.70;;
20476;SDS011;10397;50.948;11.092;2023-07-31T03:14:38;5.50;;;1.05;;
20476;SDS011;10397;50.948;11.092;2023-07-31T03:17:09;2.62;;;1.10;;
20476;SDS011;10397;50.948;11.092;2023-07-31T03:19:40;3.20;;;1.00;;
20476;SDS011;10397;50.948;11.092;2023-07-31T03:22:11;2.98;;;1.02;;
20476;SDS011;10397;50.948;11.092;2023-07-31T03:24:43;4.75;;;1.07;;
20476;SDS011;10397;50.948;11.092;2023-07-31T03:27:14;2.87;;;0.80;;
20476;SDS011;10397;50.948;11.092;2023-07-31T03:29:46;1.22;;;0.75;;
20476;SDS011;10397;50.948;11.092;2023-07-31T03:32:17;3.67;;;1.20;;
20476;SDS011;10397;50.948;11.092;2023-07-31T03:34:49;2.55;;;1.00;;
20476;SDS011;10397;50.948;11.092;2023-07-31T03:37:19;3.35;;;1.02;;
20476;SDS011;10397;50.948;11.092;2023-07-31T03:39:51;4.50;;;1.27;;
20476;SDS011;10397;50.948;11.092;2023-07-31T03:42:22;2.02;;;0.93;;
20476;SDS011;10397;50.948;11.092;2023-07-31T03:44:53;4.15;;;0.93;;
20476;SDS011;10397;50.948;11.092;2023-07-31T03:47:25;2.37;;;0.80;;
20476;SDS011;10397;50.948;11.092;2023-07-31T03:49:55;2.37;;;0.90;;
20476;SDS011;10397;50.948;11.092;2023-07-31T03:52:26;5.45;;;0.93;;
20476;SDS011;10397;50.948;11.092;2023-07-31T03:54:58;3.87;;;1.22;;
20476;SDS011;10397;50.948;11.092;2023-07-31T03:57:29;3.83;;;0.90;;
20476;SDS011;10397;50.948;11.092;2023-07-31T04:00:00;2.67;;;1.00;;
20476;SDS011;10397;50.948;11.092;2023-07-31T04:02:31;4.17;;;1.07;;
20476;SDS011;10397;50.948;11.092;2023-07-31T04:05:03;5.30;;;1.32;;
20476;SDS011;10397;50.948;11.092;2023-07-31T04:07:33;3.25;;;1.30;;
20476;SDS011;10397;50.948;11.092;2023-07-31T04:10:05;3.77;;;1.07;;
20476;SDS011;10397;50.948;11.092;2023-07-31T04:12:35;4.30;;;1.00;;
20476;SDS011;10397;50.948;11.092;2023-07-31T04:15:07;4.25;;;1.02;;
20476;SDS011;10397;50.948;11.092;2023-07-31T04:17:38;2.08;;;1.00;;
20476;SDS011;10397;50.948;11.092;2023-07-31T04:20:09;4.28;;;1.00;;
20476;SDS011;10397;50.948;11.092;2023-07-31T04:22:41;5.55;;;1.20;;
20476;SDS011;10397;50.948;11.092;2023-07-31T04:25:12;3.15;;;0.98;;
20476;SDS011;10397;50.948;11.092;2023-07-31T04:27:44;2.15;;;0.93;;
20476;SDS011;10397;50.948;11.092;2023-07-31T04:30:14;3.33;;;1.10;;
20476;SDS011;10397;50.948;11.092;2023-07-31T04:32:45;4.55;;;1.22;;
20476;SDS011;10397;50.948;11.092;2023-07-31T04:35:17;1.52;;;0.72;;
20476;SDS011;10397;50.948;11.092;2023-07-31T04:37:48;4.17;;;0.80;;
20476;SDS011;10397;50.948;11.092;2023-07-31T04:40:19;2.10;;;0.85;;
20476;SDS011;10397;50.948;11.092;2023-07-31T04:42:50;3.55;;;1.30;;
20476;SDS011;10397;50.948;11.092;2023-07-31T04:45:22;2.62;;;1.20;;
20476;SDS011;10397;50.948;11.092;2023-07-31T04:47:52;4.70;;;1.10;;
20476;SDS011;10397;50.948;11.092;2023-07-31T04:50:24;4.35;;;1.20;;
20476;SDS011;10397;50.948;11.092;2023-07-31T04:52:55;2.40;;;0.75;;
20476;SDS011;10397;50.948;11.092;2023-07-31T04:55:25;7.43;;;1.10;;
20476;SDS011;10397;50.948;11.092;2023-07-31T04:57:57;1.92;;;1.02;;
20476;SDS011;10397;50.948;11.092;2023-07-31T05:00:28;5.33;;;1.40;;
20476;SDS011;10397;50.948;11.092;2023-07-31T05:02:59;4.42;;;1.30;;
20476;SDS011;10397;50.948;11.092;2023-07-31T05:05:31;6.60;;;1.30;;
20476;SDS011;10397;50.948;11.092;2023-07-31T05:08:02;3.67;;;0.90;;
20476;SDS011;10397;50.948;11.092;2023-07-31T05:10:32;3.63;;;0.80;;
20476;SDS011;10397;50.948;11.092;2023-07-31T05:13:04;4.03;;;1.40;;
20476;SDS011;10397;50.948;11.092;2023-07-31T05:15:35;4.45;;;1.25;;
20476;SDS011;10397;50.948;11.092;2023-07-31T05:18:06;5.78;;;1.30;;
20476;SDS011;10397;50.948;11.092;2023-07-31T05:20:37;2.62;;;1.37;;
20476;SDS011;10397;50.948;11.092;2023-07-31T05:23:09;3.87;;;1.20;;
20476;SDS011;10397;50.948;11.092;2023-07-31T05:25:40;3.22;;;1.07;;
20476;SDS011;10397;50.948;11.092;2023-07-31T05:28:12;3.67;;;1.07;;
20476;SDS011;10397;50.948;11.092;2023-07-31T05:30:43;3.00;;;0.90;;
20476;SDS011;10397;50.948;11.092;2023-07-31T05:33:14;3.92;;;1.52;;
20476;SDS011;10397;50.948;11.092;2023-07-31T05:35:46;3.25;;;1.22;;
20476;SDS011;10397;50.948;11.092;2023-07-31T05:38:17;5.33;;;1.17;;
20476;SDS011;10397;50.948;11.092;2023-07-31T05:40:48;4.25;;;1.30;;
20476;SDS011;10397;50.948;11.092;2023-07-31T05:43:19;4.53;;;1.30;;
20476;SDS011;10397;50.948;11.092;2023-07-31T05:45:50;3.27;;;1.32;;
20476;SDS011;10397;50.948;11.092;2023-07-31T05:48:21;5.50;;;1.27;;
20476;SDS011;10397;50.948;11.092;2023-07-31T05:50:52;4.80;;;1.70;;
20476;SDS011;10397;50.948;11.092;2023-07-31T05:53:23;2.40;;;1.00;;
20476;SDS011;10397;50.948;11.092;2023-07-31T05:55:54;3.33;;;1.40;;
20476;SDS011;10397;50.948;11.092;2023-07-31T05:58:26;2.90;;;1.02;;
20476;SDS011;10397;50.948;11.092;2023-07-31T06:00:57;3.15;;;1.27;;
20476;SDS011;10397;50.948;11.092;2023-07-31T06:03:28;5.17;;;0.70;;
20476;SDS011;10397;50.948;11.092;2023-07-31T06:06:00;4.85;;;1.47;;
20476;SDS011;10397;50.948;11.092;2023-07-31T06:08:30;3.30;;;1.30;;
20476;SDS011;10397;50.948;11.092;2023-07-31T06:11:02;6.03;;;1.22;;
20476;SDS011;10397;50.948;11.092;2023-07-31T06:13:32;4.70;;;1.47;;
20476;SDS011;10397;50.948;11.092;2023-07-31T06:16:04;3.00;;;1.20;;
20476;SDS011;10397;50.948;11.092;2023-07-31T06:18:35;4.87;;;1.12;;
20476;SDS011;10397;50.948;11.092;2023-07-31T06:21:07;3.95;;;1.27;;
20476;SDS011;10397;50.948;11.092;2023-07-31T06:23:37;5.93;;;1.27;;
20476;SDS011;10397;50.948;11.092;2023-07-31T06:26:08;2.27;;;1.30;;
20476;SDS011;10397;50.948;11.092;2023-07-31T06:28:40;5.67;;;2.30;;
20476;SDS011;10397;50.948;11.092;2023-07-31T06:31:10;4.10;;;1.93;;
20476;SDS011;10397;50.948;11.092;2023-07-31T06:33:42;4.15;;;1.30;;
20476;SDS011;10397;50.948;11.092;2023-07-31T06:36:13;4.28;;;1.45;;
20476;SDS011;10397;50.948;11.092;2023-07-31T06:38:45;6.72;;;1.67;;
20476;SDS011;10397;50.948;11.092;2023-07-31T06:41:16;5.05;;;1.45;;
20476;SDS011;10397;50.948;11.092;2023-07-31T06:43:47;3.33;;;1.42;;
20476;SDS011;10397;50.948;11.092;2023-07-31T06:46:19;3.35;;;1.30;;
20476;SDS011;10397;50.948;11.092;2023-07-31T06:48:50;4.05;;;1.60;;
20476;SDS011;10397;50.948;11.092;2023-07-31T06:51:21;3.83;;;1.30;;
20476;SDS011;10397;50.948;11.092;2023-07-31T06:53:52;3.57;;;1.57;;
20476;SDS011;10397;50.948;11.092;2023-07-31T06:56:22;3.85;;;1.50;;
20476;SDS011;10397;50.948;11.092;2023-07-31T06:58:53;6.60;;;1.62;;
20476;SDS011;10397;50.948;11.092;2023-07-31T07:01:24;3.80;;;1.50;;
20476;SDS011;10397;50.948;11.092;2023-07-31T07:03:55;3.50;;;1.75;;
20476;SDS011;10397;50.948;11.092;2023-07-31T07:06:26;2.90;;;1.57;;
20476;SDS011;10397;50.948;11.092;2023-07-31T07:08:57;2.98;;;1.30;;
20476;SDS011;10397;50.948;11.092;2023-07-31T07:11:28;4.35;;;1.80;;
20476;SDS011;10397;50.948;11.092;2023-07-31T07:13:58;3.00;;;1.80;;
20476;SDS011;10397;50.948;11.092;2023-07-31T07:16:29;3.37;;;1.87;;
20476;SDS011;10397;50.948;11.092;2023-07-31T07:19:00;4.22;;;1.57;;
20476;SDS011;10397;50.948;11.092;2023-07-31T07:21:32;7.35;;;1.80;;
20476;SDS011;10397;50.948;11.092;2023-07-31T07:24:02;3.83;;;1.67;;
20476;SDS011;10397;50.948;11.092;2023-07-31T07:26:33;5.33;;;1.95;;
20476;SDS011;10397;50.948;11.092;2023-07-31T07:29:04;4.63;;;1.63;;
20476;SDS011;10397;50.948;11.092;2023-07-31T07:31:35;3.37;;;1.40;;
20476;SDS011;10397;50.948;11.092;2023-07-31T07:34:06;5.97;;;1.77;;
20476;SDS011;10397;50.948;11.092;2023-07-31T07:36:37;3.10;;;1.93;;
20476;SDS011;10397;50.948;11.092;2023-07-31T07:39:10;3.15;;;1.55;;
20476;SDS011;10397;50.948;11.092;2023-07-31T07:41:39;3.13;;;1.43;;
20476;SDS011;10397;50.948;11.092;2023-07-31T07:44:10;5.00;;;1.42;;
20476;SDS011;10397;50.948;11.092;2023-07-31T07:46:41;4.03;;;1.60;;
20476;SDS011;10397;50.948;11.092;2023-07-31T07:49:12;3.10;;;1.62;;
20476;SDS011;10397;50.948;11.092;2023-07-31T07:51:44;3.50;;;1.12;;
20476;SDS011;10397;50.948;11.092;2023-07-31T07:54:15;6.17;;;1.75;;
20476;SDS011;10397;50.948;11.092;2023-07-31T07:56:46;2.77;;;1.30;;
20476;SDS011;10397;50.948;11.092;2023-07-31T07:59:18;2.92;;;1.62;;
20476;SDS011;10397;50.948;11.092;2023-07-31T08:01:49;3.65;;;1.60;;
20476;SDS011;10397;50.948;11.092;2023-07-31T08:04:20;2.58;;;1.20;;
20476;SDS011;10397;50.948;11.092;2023-07-31T08:06:52;6.28;;;1.57;;
20476;SDS011;10397;50.948;11.092;2023-07-31T08:09:22;4.63;;;1.37;;
20476;SDS011;10397;50.948;11.092;2023-07-31T08:11:53;5.55;;;1.47;;
20476;SDS011;10397;50.948;11.092;2023-07-31T08:14:25;3.50;;;1.62;;
20476;SDS011;10397;50.948;11.092;2023-07-31T08:16:56;3.75;;;1.70;;
20476;SDS011;10397;50.948;11.092;2023-07-31T08:19:28;3.02;;;1.22;;
20476;SDS011;10397;50.948;11.092;2023-07-31T08:21:59;4.22;;;1.45;;
20476;SDS011;10397;50.948;11.092;2023-07-31T08:24:31;2.35;;;1.40;;
20476;SDS011;10397;50.948;11.092;2023-07-31T08:27:02;2.47;;;1.27;;
20476;SDS011;10397;50.948;11.092;2023-07-31T08:29:32;3.47;;;1.45;;
20476;SDS011;10397;50.948;11.092;2023-07-31T08:32:04;2.00;;;1.00;;
20476;SDS011;10397;50.948;11.092;2023-07-31T08:34:34;7.42;;;1.75;;
20476;SDS011;10397;50.948;11.092;2023-07-31T08:37:05;5.47;;;1.67;;
20476;SDS011;10397;50.948;11.092;2023-07-31T08:39:36;4.63;;;1.90;;
20476;SDS011;10397;50.948;11.092;2023-07-31T08:42:08;4.08;;;1.52;;
20476;SDS011;10397;50.948;11.092;2023-07-31T08:44:39;7.62;;;1.32;;
20476;SDS011;10397;50.948;11.092;2023-07-31T08:47:10;3.60;;;1.32;;
20476;SDS011;10397;50.948;11.092;2023-07-31T08:49:41;4.30;;;1.90;;
20476;SDS011;10397;50.948;11.092;2023-07-31T08:52:12;2.72;;;1.30;;
20476;SDS011;10397;50.948;11.092;2023-07-31T08:54:43;2.57;;;1.37;;
20476;SDS011;10397;50.948;11.092;2023-07-31T08:57:15;3.60;;;1.40;;
20476;SDS011;10397;50.948;11.092;2023-07-31T08:59:46;5.87;;;1.50;;
20476;SDS011;10397;50.948;11.092;2023-07-31T09:02:18;4.53;;;2.15;;
20476;SDS011;10397;50.948;11.092;2023-07-31T09:04:49;3.30;;;1.92;;
20476;SDS011;10397;50.948;11.092;2023-07-31T09:07:21;3.08;;;1.45;;
20476;SDS011;10397;50.948;11.092;2023-07-31T09:09:52;2.20;;;1.25;;
20476;SDS011;10397;50.948;11.092;2023-07-31T09:12:24;4.28;;;1.70;;
20476;SDS011;10397;50.948;11.092;2023-07-31T09:14:55;3.00;;;1.40;;
20476;SDS011;10397;50.948;11.092;2023-07-31T09:17:29;2.92;;;1.70;;
20476;SDS011;10397;50.948;11.092;2023-07-31T09:20:34;3.13;;;2.03;;
20476;SDS011;10397;50.948;11.092;2023-07-31T09:22:45;3.43;;;1.57;;
20476;SDS011;10397;50.948;11.092;2023-07-31T09:25:17;4.58;;;1.60;;
20476;SDS011;10397;50.948;11.092;2023-07-31T09:28:08;3.60;;;1.63;;
20476;SDS011;10397;50.948;11.092;2023-07-31T09:30:17;4.03;;;1.52;;
20476;SDS011;10397;50.948;11.092;2023-07-31T09:32:48;3.90;;;1.87;;
20476;SDS011;10397;50.948;11.092;2023-07-31T09:35:22;2.90;;;1.67;;
20476;SDS011;10397;50.948;11.092;2023-07-31T09:37:59;4.30;;;1.67;;
20476;SDS011;10397;50.948;11.092;2023-07-31T09:40:41;5.92;;;2.08;;
20476;SDS011;10397;50.948;11.092;2023-07-31T09:43:12;4.20;;;1.90;;
20476;SDS011;10397;50.948;11.092;2023-07-31T09:45:42;9.00;;;2.37;;
20476;SDS011;10397;50.948;11.092;2023-07-31T09:48:13;4.53;;;1.60;;
20476;SDS011;10397;50.948;11.092;2023-07-31T09:50:46;3.50;;;1.67;;
20476;SDS011;10397;50.948;11.092;2023-07-31T09:53:17;4.72;;;1.50;;
20476;SDS011;10397;50.948;11.092;2023-07-31T09:55:48;3.85;;;1.50;;
20476;SDS011;10397;50.948;11.092;2023-07-31T09:58:19;2.72;;;1.70;;
20476;SDS011;10397;50.948;11.092;2023-07-31T10:00:50;3.95;;;1.62;;
20476;SDS011;10397;50.948;11.092;2023-07-31T10:03:21;5.97;;;1.67;;
20476;SDS011;10397;50.948;11.092;2023-07-31T10:05:53;2.70;;;2.15;;
20476;SDS011;10397;50.948;11.092;2023-07-31T10:08:27;5.25;;;2.00;;
20476;SDS011;10397;50.948;11.092;2023-07-31T10:10:55;4.37;;;1.07;;
20476;SDS011;10397;50.948;11.092;2023-07-31T10:13:26;3.62;;;1.67;;
20476;SDS011;10397;50.948;11.092;2023-07-31T10:15:59;4.13;;;1.33;;
20476;SDS011;10397;50.948;11.092;2023-07-31T10:18:30;5.17;;;1.77;;
20476;SDS011;10397;50.948;11.092;2023-07-31T10:21:01;3.58;;;1.40;;
20476;SDS011;10397;50.948;11.092;2023-07-31T10:23:31;4.27;;;1.60;;
20476;SDS011;10397;50.948;11.092;2023-07-31T10:26:02;3.08;;;1.87;;
20476;SDS011;10397;50.948;11.092;2023-07-31T10:28:34;5.97;;;2.30;;
20476;SDS011;10397;50.948;11.092;2023-07-31T10:31:05;7.15;;;1.85;;
20476;SDS011;10397;50.948;11.092;2023-07-31T10:33:36;3.37;;;1.70;;
20476;SDS011;10397;50.948;11.092;2023-07-31T10:36:14;4.28;;;2.20;;
20476;SDS011;10397;50.948;11.092;2023-07-31T10:38:43;4.57;;;1.90;;
20476;SDS011;10397;50.948;11.092;2023-07-31T10:41:15;6.15;;;2.15;;
20476;SDS011;10397;50.948;11.092;2023-07-31T10:43:46;4.05;;;1.92;;
20476;SDS011;10397;50.948;11.092;2023-07-31T10:46:17;2.80;;;1.50;;
20476;SDS011;10397;50.948;11.092;2023-07-31T10:48:49;3.95;;;1.70;;
20476;SDS011;10397;50.948;11.092;2023-07-31T10:51:20;2.55;;;1.60;;
20476;SDS011;10397;50.948;11.092;2023-07-31T10:53:51;3.42;;;2.08;;
20476;SDS011;10397;50.948;11.092;2023-07-31T10:56:21;5.07;;;1.50;;
20476;SDS011;10397;50.948;11.092;2023-07-31T10:59:00;5.22;;;1.77;;
20476;SDS011;10397;50.948;11.092;2023-07-31T11:01:23;6.55;;;2.12;;
20476;SDS011;10397;50.948;11.092;2023-07-31T11:03:55;3.02;;;1.98;;
20476;SDS011;10397;50.948;11.092;2023-07-31T11:06:29;3.00;;;1.97;;
20476;SDS011;10397;50.948;11.092;2023-07-31T11:08:56;4.75;;;2.12;;
20476;SDS011;10397;50.948;11.092;2023-07-31T11:11:27;3.65;;;2.20;;
20476;SDS011;10397;50.948;11.092;2023-07-31T11:13:59;4.58;;;2.22;;
20476;SDS011;10397;50.948;11.092;2023-07-31T11:16:30;4.55;;;2.50;;
20476;SDS011;10397;50.948;11.092;2023-07-31T11:19:01;3.00;;;1.60;;
20476;SDS011;10397;50.948;11.092;2023-07-31T11:21:33;4.33;;;2.53;;
20476;SDS011;10397;50.948;11.092;2023-07-31T11:24:04;5.53;;;1.90;;
20476;SDS011;10397;50.948;11.092;2023-07-31T11:26:35;3.08;;;1.80;;
20476;SDS011;10397;50.948;11.092;2023-07-31T11:29:10;4.55;;;1.95;;
20476;SDS011;10397;50.948;11.092;2023-07-31T11:31:41;7.20;;;2.40;;
20476;SDS011;10397;50.948;11.092;2023-07-31T11:34:08;4.90;;;1.60;;
20476;SDS011;10397;50.948;11.092;2023-07-31T11:36:39;4.72;;;2.12;;
20476;SDS011;10397;50.948;11.092;2023-07-31T11:39:10;6.23;;;1.97;;
20476;SDS011;10397;50.948;11.092;2023-07-31T11:41:41;4.37;;;1.95;;
20476;SDS011;10397;50.948;11.092;2023-07-31T11:44:12;5.28;;;2.10;;
20476;SDS011;10397;50.948;11.092;2023-07-31T11:46:43;5.37;;;2.02;;
20476;SDS011;10397;50.948;11.092;2023-07-31T11:49:15;5.53;;;2.00;;
20476;SDS011;10397;50.948;11.092;2023-07-31T11:51:46;2.95;;;1.75;;
20476;SDS011;10397;50.948;11.092;2023-07-31T11:54:18;3.52;;;1.52;;
20476;SDS011;10397;50.948;11.092;2023-07-31T11:56:49;3.98;;;2.20;;
20476;SDS011;10397;50.948;11.092;2023-07-31T11:59:20;3.98;;;1.80;;
20476;SDS011;10397;50.948;11.092;2023-07-31T12:01:52;4.60;;;1.92;;
20476;SDS011;10397;50.948;11.092;2023-07-31T12:04:23;2.58;;;1.60;;
20476;SDS011;10397;50.948;11.092;2023-07-31T12:06:53;5.47;;;1.60;;
20476;SDS011;10397;50.948;11.092;2023-07-31T12:09:24;4.03;;;1.52;;
20476;SDS011;10397;50.948;11.092;2023-07-31T12:11:55;3.07;;;1.80;;
20476;SDS011;10397;50.948;11.092;2023-07-31T12:14:27;3.35;;;1.75;;
20476;SDS011;10397;50.948;11.092;2023-07-31T12:17:00;3.17;;;1.43;;
20476;SDS011;10397;50.948;11.092;2023-07-31T12:19:30;3.22;;;1.70;;
20476;SDS011;10397;50.948;11.092;2023-07-31T12:22:02;3.37;;;1.85;;
20476;SDS011;10397;50.948;11.092;2023-07-31T12:24:33;3.95;;;1.65;;
20476;SDS011;10397;50.948;11.092;2023-07-31T12:27:08;3.43;;;1.60;;
20476;SDS011;10397;50.948;11.092;2023-07-31T12:29:42;3.23;;;1.30;;
20476;SDS011;10397;50.948;11.092;2023-07-31T12:32:20;3.92;;;1.75;;
20476;SDS011;10397;50.948;11.092;2023-07-31T12:34:50;3.10;;;1.60;;
20476;SDS011;10397;50.948;11.092;2023-07-31T12:37:21;3.95;;;1.55;;
20476;SDS011;10397;50.948;11.092;2023-07-31T12:39:51;3.83;;;1.47;;
20476;SDS011;10397;50.948;11.092;2023-07-31T12:42:22;2.98;;;1.57;;
20476;SDS011;10397;50.948;11.092;2023-07-31T12:44:53;3.20;;;1.45;;
20476;SDS011;10397;50.948;11.092;2023-07-31T12:47:24;3.80;;;1.27;;
20476;SDS011;10397;50.948;11.092;2023-07-31T12:49:55;3.37;;;1.22;;
20476;SDS011;10397;50.948;11.092;2023-07-31T12:52:26;2.70;;;1.47;;
20476;SDS011;10397;50.948;11.092;2023-07-31T12:54:57;1.50;;;0.98;;
20476;SDS011;10397;50.948;11.092;2023-07-31T12:57:29;2.87;;;1.32;;
20476;SDS011;10397;50.948;11.092;2023-07-31T12:59:59;4.03;;;1.27;;
20476;SDS011;10397;50.948;11.092;2023-07-31T13:02:30;3.12;;;1.40;;
20476;SDS011;10397;50.948;11.092;2023-07-31T13:05:02;2.72;;;1.30;;
20476;SDS011;10397;50.948;11.092;2023-07-31T13:07:33;2.05;;;1.20;;
20476;SDS011;10397;50.948;11.092;2023-07-31T13:10:04;2.97;;;1.33;;
20476;SDS011;10397;50.948;11.092;2023-07-31T13:12:35;3.87;;;1.50;;
20476;SDS011;10397;50.948;11.092;2023-07-31T13:15:05;2.77;;;1.47;;
20476;SDS011;10397;50.948;11.092;2023-07-31T13:17:36;2.90;;;1.43;;
20476;SDS011;10397;50.948;11.092;2023-07-31T13:20:08;2.67;;;1.30;;
20476;SDS011;10397;50.948;11.092;2023-07-31T13:22:38;2.27;;;1.23;;
20476;SDS011;10397;50.948;11.092;2023-07-31T13:25:09;4.00;;;1.60;;
20476;SDS011;10397;50.948;11.092;2023-07-31T13:27:40;4.23;;;1.33;;
20476;SDS011;10397;50.948;11.092;2023-07-31T13:30:11;2.67;;;1.52;;
20476;SDS011;10397;50.948;11.092;2023-07-31T13:32:41;2.10;;;1.17;;
20476;SDS011;10397;50.948;11.092;2023-07-31T13:35:13;3.20;;;1.12;;
20476;SDS011;10397;50.948;11.092;2023-07-31T13:37:44;3.30;;;1.50;;
20476;SDS011;10397;50.948;11.092;2023-07-31T13:40:16;3.08;;;1.22;;
20476;SDS011;10397;50.948;11.092;2023-07-31T13:42:47;4.33;;;1.72;;
20476;SDS011;10397;50.948;11.092;2023-07-31T13:45:17;5.43;;;1.63;;
20476;SDS011;10397;50.948;11.092;2023-07-31T13:47:49;4.22;;;1.20;;
20476;SDS011;10397;50.948;11.092;2023-07-31T13:50:19;2.52;;;1.50;;
20476;SDS011;10397;50.948;11.092;2023-07-31T13:52:49;4.07;;;1.93;;
20476;SDS011;10397;50.948;11.092;2023-07-31T13:55:20;4.25;;;1.35;;
20476;SDS011;10397;50.948;11.092;2023-07-31T13:57:51;3.23;;;1.80;;
20476;SDS011;10397;50.948;11.092;2023-07-31T14:00:22;4.60;;;1.90;;
20476;SDS011;10397;50.948;11.092;2023-07-31T14:02:53;5.10;;;1.53;;
20476;SDS011;10397;50.948;11.092;2023-07-31T14:05:24;2.45;;;1.47;;
20476;SDS011;10397;50.948;11.092;2023-07-31T14:07:56;4.42;;;1.92;;
20476;SDS011;10397;50.948;11.092;2023-07-31T14:10:27;5.47;;;2.10;;
20476;SDS011;10397;50.948;11.092;2023-07-31T14:12:59;4.85;;;2.40;;
20476;SDS011;10397;50.948;11.092;2023-07-31T14:15:29;4.77;;;1.80;;
20476;SDS011;10397;50.948;11.092;2023-07-31T14:18:00;7.15;;;2.05;;
20476;SDS011;10397;50.948;11.092;2023-07-31T14:20:31;3.85;;;1.87;;
20476;SDS011;10397;50.948;11.092;2023-07-31T14:23:03;3.72;;;1.80;;
20476;SDS011;10397;50.948;11.092;2023-07-31T14:25:32;3.43;;;1.50;;
20476;SDS011;10397;50.948;11.092;2023-07-31T14:28:03;4.30;;;2.15;;
20476;SDS011;10397;50.948;11.092;2023-07-31T14:30:35;3.42;;;1.85;;
20476;SDS011;10397;50.948;11.092;2023-07-31T14:33:06;4.72;;;1.90;;
20476;SDS011;10397;50.948;11.092;2023-07-31T14:35:37;3.10;;;1.70;;
20476;SDS011;10397;50.948;11.092;2023-07-31T14:38:08;3.98;;;2.00;;
20476;SDS011;10397;50.948;11.092;2023-07-31T14:40:39;7.03;;;2.27;;
20476;SDS011;10397;50.948;11.092;2023-07-31T14:43:09;4.40;;;1.60;;
20476;SDS011;10397;50.948;11.092;2023-07-31T14:45:40;3.50;;;1.90;;
20476;SDS011;10397;50.948;11.092;2023-07-31T14:48:12;3.60;;;1.72;;
20476;SDS011;10397;50.948;11.092;2023-07-31T14:50:42;6.87;;;1.77;;
20476;SDS011;10397;50.948;11.092;2023-07-31T14:53:13;6.22;;;1.87;;
20476;SDS011;10397;50.948;11.092;2023-07-31T14:55:45;3.15;;;1.80;;
20476;SDS011;10397;50.948;11.092;2023-07-31T14:58:15;5.20;;;2.73;;
20476;SDS011;10397;50.948;11.092;2023-07-31T15:00:46;3.55;;;1.92;;